Old Orchard Beach, Maine
Current Conditions -  °F | °C
As of 5:51 AM on Friday 31 Oct 2014 (Local Time) from KPWM Reporting Station
Overcast Overcast  
Wind Chill: 39°   Ceiling: 5000
Heat Index: 39°   Visibility: 10mi
Dew Point: 35°   Wind: 3mph
Humidity: 86%   Direction: 280°W
Pressure: 30.04"   Gusts: NA
Location:  43.52°N, 70.38°W
Report Text: KPWM 310951Z 28003KT 10SM OVC050 04/02 A3004 RMK AO2 SLP173 T00390017
Loading
Personal Weather Stations






























Interactive Weather Map
Tropical Storm Tracking
New forecast layout! Learn more

10-Day Weather Forecast

Advertisements
Track Severe Weather on mobile